Marshall, MN

8:25 PM CDT on April 01, 2015 (GMT -0500)
Samuel Luth. School | | Change Station
CLOSE
Current Station
Personal Weather Station
Location: Marshall, MN
Elevation: 1145 ft
Nearby Weather Stations

Elev 1145 ft 44.46 °N, 95.77 °W | Updated 9 seconds ago

Clear
Clear
63.8 °F
Feels Like 63.8 °F
N
4.0
Wind Variable Wind from WNW
Gusts 12.0 mph

Today
High -- | Low -- °F
--% Chance of Precip.
Yesterday
High -- | Low -- °F
Precip. -- in
7:04 AM 7:50 PM
Waxing Gibbous, 95% visible
Pressure 29.57 in
Visibility 10.0 miles
Clouds Clear
Dew Point 44 °F
Humidity 49%
Rainfall 0.00 in
Snow Depth Not available.
UV 0 out of 12
Pollen 7.50 out of 12
Air Quality Not available.
Flu Activity Not available.
METAR KMML 020115Z AUTO 33011KT 10SM CLR 17/04 A2957 RMK AO1 LTG DSNT SE

More Conditions Fewer Conditions

Pressure 29.57 in
Visibility 10.0 miles
Clouds Clear
Dew Point 44 °F
Humidity 49%
Rainfall 0.00 in
Snow Depth Not available.
UV 0 out of 12
Pollen 7.50 out of 12
Air Quality Not available.
Flu Activity Not available.
METAR KMML 020115Z AUTO 33011KT 10SM CLR 17/04 A2957 RMK AO1 LTG DSNT SE

More Conditions Fewer Conditions

10-Day Weather Forecast

Almanac

Astronomy

Apr. 01, 2015 Rise Set
Actual Time
Civil Twilight
Nautical Twilight
Astronomical Twilight
Moon
Length of Visible Light
Length of Day
Tomorrow will be .
, % of the Moon is Illuminated

Today's Extremes

State Highs State Lows

Community

WunderPhotos

Upload Photos

1,810,142 photos uploaded!

WunderBlogs® & News

Nearby

Air Quality

  Air Quality AQ Index Pollutant
Not available.

Snow Depth

Station Depth Elevation

Earthquake Activity

City Distance Mag. Time & Date
Minimum magnitude displayed is 2.5.

Coastal Water Temperatures

Place Temperature

Stations

Nearby Weather Stations

Station Location Temp. Windchill Dew Point Humidity Wind Precip. Elev Updated Type
                   
Fire Weather Warning
Statement as of 7:54 PM CDT on April 01, 2015

... Red flag warning remains in effect from 11 am to 7 PM CDT
Thursday for strong winds and low humidity for fire weather zones
255... 256... 257... 258 and 900...

... Red flag warning will expire at 8 PM CDT this evening for fire
weather zones 255... 256... 257... 258 and 900...


* affected area... fire weather zone 900. Fire weather zone
255..256... 257... and 258 in South Dakota. Fire weather zone 900
in Minnesota.

* Wind... northwest winds are expected to increase to 20 to 30 mph
Thursday afternoon.

* Humidity... relative humidity will fall to 15 to 25 percent on
Thursday.

* Impacts... any fires that develop will likely spread rapidly.
Outdoor burning is not recommended.


Precautionary/preparedness actions...

A red flag warning means that critical fire weather conditions
are either occurring now... or will shortly. A combination of
strong winds... low relative humidity... and warm temperatures can
contribute to extreme fire behavior.